sensor_id;sensor_type;location;lat;lon;timestamp;P1;durP1;ratioP1;P2;durP2;ratioP2
50429;SDS011;36359;41.556;-8.418;2023-03-01T00:01:08;10.93;;;6.03;;
50429;SDS011;36359;41.556;-8.418;2023-03-01T00:03:36;7.43;;;3.33;;
50429;SDS011;36359;41.556;-8.418;2023-03-01T00:06:02;5.43;;;2.73;;
50429;SDS011;36359;41.556;-8.418;2023-03-01T00:08:29;7.40;;;4.43;;
50429;SDS011;36359;41.556;-8.418;2023-03-01T00:13:42;9.37;;;3.63;;
50429;SDS011;36359;41.556;-8.418;2023-03-01T00:16:10;6.20;;;2.80;;
50429;SDS011;36359;41.556;-8.418;2023-03-01T00:18:38;4.87;;;2.50;;
50429;SDS011;36359;41.556;-8.418;2023-03-01T00:21:04;5.40;;;2.30;;
50429;SDS011;36359;41.556;-8.418;2023-03-01T00:23:30;5.70;;;2.40;;
50429;SDS011;36359;41.556;-8.418;2023-03-01T00:25:58;6.67;;;2.23;;
50429;SDS011;36359;41.556;-8.418;2023-03-01T00:28:24;6.80;;;2.13;;
50429;SDS011;36359;41.556;-8.418;2023-03-01T00:30:49;6.47;;;1.97;;
50429;SDS011;36359;41.556;-8.418;2023-03-01T00:33:15;5.73;;;2.17;;
50429;SDS011;36359;41.556;-8.418;2023-03-01T00:35:41;4.30;;;1.70;;
50429;SDS011;36359;41.556;-8.418;2023-03-01T00:38:07;4.57;;;1.90;;
50429;SDS011;36359;41.556;-8.418;2023-03-01T00:40:34;6.83;;;2.03;;
50429;SDS011;36359;41.556;-8.418;2023-03-01T00:43:00;5.30;;;1.77;;
50429;SDS011;36359;41.556;-8.418;2023-03-01T00:45:27;4.47;;;1.90;;
50429;SDS011;36359;41.556;-8.418;2023-03-01T00:47:53;4.87;;;2.60;;
50429;SDS011;36359;41.556;-8.418;2023-03-01T00:50:19;7.30;;;1.97;;
50429;SDS011;36359;41.556;-8.418;2023-03-01T00:52:45;4.00;;;1.80;;
50429;SDS011;36359;41.556;-8.418;2023-03-01T00:55:11;5.43;;;1.80;;
50429;SDS011;36359;41.556;-8.418;2023-03-01T00:57:37;7.20;;;1.90;;
50429;SDS011;36359;41.556;-8.418;2023-03-01T01:00:06;5.70;;;2.83;;
50429;SDS011;36359;41.556;-8.418;2023-03-01T01:02:35;6.53;;;4.30;;
50429;SDS011;36359;41.556;-8.418;2023-03-01T01:05:00;6.83;;;3.83;;
50429;SDS011;36359;41.556;-8.418;2023-03-01T01:07:26;5.13;;;2.63;;
50429;SDS011;36359;41.556;-8.418;2023-03-01T01:09:52;6.90;;;2.33;;
50429;SDS011;36359;41.556;-8.418;2023-03-01T01:12:17;6.03;;;2.20;;
50429;SDS011;36359;41.556;-8.418;2023-03-01T01:14:43;5.33;;;2.20;;
50429;SDS011;36359;41.556;-8.418;2023-03-01T01:17:09;8.00;;;2.90;;
50429;SDS011;36359;41.556;-8.418;2023-03-01T01:19:35;6.70;;;2.97;;
50429;SDS011;36359;41.556;-8.418;2023-03-01T01:22:01;7.57;;;3.80;;
50429;SDS011;36359;41.556;-8.418;2023-03-01T01:24:27;7.13;;;3.40;;
50429;SDS011;36359;41.556;-8.418;2023-03-01T01:26:52;8.03;;;3.37;;
50429;SDS011;36359;41.556;-8.418;2023-03-01T01:29:18;8.37;;;3.70;;
50429;SDS011;36359;41.556;-8.418;2023-03-01T01:31:44;9.57;;;4.40;;
50429;SDS011;36359;41.556;-8.418;2023-03-01T01:34:18;14.27;;;4.60;;
50429;SDS011;36359;41.556;-8.418;2023-03-01T01:36:49;10.87;;;4.17;;
50429;SDS011;36359;41.556;-8.418;2023-03-01T01:39:18;10.17;;;4.43;;
50429;SDS011;36359;41.556;-8.418;2023-03-01T01:41:44;9.87;;;3.97;;
50429;SDS011;36359;41.556;-8.418;2023-03-01T01:44:14;8.93;;;3.90;;
50429;SDS011;36359;41.556;-8.418;2023-03-01T01:49:31;11.88;;;4.55;;
50429;SDS011;36359;41.556;-8.418;2023-03-01T01:52:20;13.23;;;4.67;;
50429;SDS011;36359;41.556;-8.418;2023-03-01T01:57:26;10.13;;;4.50;;
50429;SDS011;36359;41.556;-8.418;2023-03-01T01:59:58;7.33;;;2.97;;
50429;SDS011;36359;41.556;-8.418;2023-03-01T02:02:38;6.50;;;2.30;;
50429;SDS011;36359;41.556;-8.418;2023-03-01T02:05:09;4.23;;;1.80;;
50429;SDS011;36359;41.556;-8.418;2023-03-01T02:07:39;5.07;;;1.70;;
50429;SDS011;36359;41.556;-8.418;2023-03-01T02:10:08;6.03;;;2.10;;
50429;SDS011;36359;41.556;-8.418;2023-03-01T02:12:34;4.87;;;2.17;;
50429;SDS011;36359;41.556;-8.418;2023-03-01T02:15:02;7.23;;;1.80;;
50429;SDS011;36359;41.556;-8.418;2023-03-01T02:17:28;4.37;;;1.63;;
50429;SDS011;36359;41.556;-8.418;2023-03-01T02:22:32;5.13;;;1.83;;
50429;SDS011;36359;41.556;-8.418;2023-03-01T02:30:41;5.17;;;1.80;;
50429;SDS011;36359;41.556;-8.418;2023-03-01T02:33:31;7.53;;;2.63;;
50429;SDS011;36359;41.556;-8.418;2023-03-01T02:35:58;7.10;;;3.20;;
50429;SDS011;36359;41.556;-8.418;2023-03-01T02:38:26;5.60;;;2.90;;
50429;SDS011;36359;41.556;-8.418;2023-03-01T02:40:53;6.60;;;2.50;;
50429;SDS011;36359;41.556;-8.418;2023-03-01T02:43:22;7.67;;;2.20;;
50429;SDS011;36359;41.556;-8.418;2023-03-01T02:45:57;5.57;;;1.90;;
50429;SDS011;36359;41.556;-8.418;2023-03-01T02:48:25;5.33;;;2.03;;
50429;SDS011;36359;41.556;-8.418;2023-03-01T02:54:12;4.37;;;1.63;;
50429;SDS011;36359;41.556;-8.418;2023-03-01T02:56:41;4.03;;;1.70;;
50429;SDS011;36359;41.556;-8.418;2023-03-01T02:59:09;6.23;;;1.97;;
50429;SDS011;36359;41.556;-8.418;2023-03-01T03:01:37;5.13;;;1.90;;
50429;SDS011;36359;41.556;-8.418;2023-03-01T03:04:08;3.63;;;1.50;;
50429;SDS011;36359;41.556;-8.418;2023-03-01T03:06:36;5.60;;;1.63;;
50429;SDS011;36359;41.556;-8.418;2023-03-01T03:09:03;5.40;;;1.90;;
50429;SDS011;36359;41.556;-8.418;2023-03-01T03:11:30;3.20;;;1.53;;
50429;SDS011;36359;41.556;-8.418;2023-03-01T03:13:57;3.17;;;1.60;;
50429;SDS011;36359;41.556;-8.418;2023-03-01T03:16:23;4.13;;;1.73;;
50429;SDS011;36359;41.556;-8.418;2023-03-01T03:18:50;6.97;;;1.80;;
50429;SDS011;36359;41.556;-8.418;2023-03-01T03:21:16;6.30;;;2.10;;
50429;SDS011;36359;41.556;-8.418;2023-03-01T03:23:42;5.43;;;1.90;;
50429;SDS011;36359;41.556;-8.418;2023-03-01T03:26:08;6.77;;;1.80;;
50429;SDS011;36359;41.556;-8.418;2023-03-01T03:28:34;6.13;;;2.20;;
50429;SDS011;36359;41.556;-8.418;2023-03-01T03:31:00;5.67;;;2.37;;
50429;SDS011;36359;41.556;-8.418;2023-03-01T03:33:32;3.77;;;1.90;;
50429;SDS011;36359;41.556;-8.418;2023-03-01T03:35:58;5.20;;;2.83;;
50429;SDS011;36359;41.556;-8.418;2023-03-01T03:38:24;7.27;;;3.77;;
50429;SDS011;36359;41.556;-8.418;2023-03-01T03:43:17;6.13;;;3.13;;
50429;SDS011;36359;41.556;-8.418;2023-03-01T03:45:46;6.20;;;3.10;;
50429;SDS011;36359;41.556;-8.418;2023-03-01T03:48:13;5.40;;;2.60;;
50429;SDS011;36359;41.556;-8.418;2023-03-01T03:50:39;5.13;;;2.23;;
50429;SDS011;36359;41.556;-8.418;2023-03-01T03:53:08;4.97;;;2.07;;
50429;SDS011;36359;41.556;-8.418;2023-03-01T03:55:36;5.43;;;1.80;;
50429;SDS011;36359;41.556;-8.418;2023-03-01T03:58:05;5.73;;;1.50;;
50429;SDS011;36359;41.556;-8.418;2023-03-01T04:00:38;5.38;;;2.00;;
50429;SDS011;36359;41.556;-8.418;2023-03-01T04:03:06;4.17;;;1.80;;
50429;SDS011;36359;41.556;-8.418;2023-03-01T04:05:33;6.53;;;2.13;;
50429;SDS011;36359;41.556;-8.418;2023-03-01T04:07:59;7.30;;;2.40;;
50429;SDS011;36359;41.556;-8.418;2023-03-01T04:10:28;6.07;;;3.37;;
50429;SDS011;36359;41.556;-8.418;2023-03-01T04:12:55;6.03;;;2.63;;
50429;SDS011;36359;41.556;-8.418;2023-03-01T04:15:21;5.90;;;2.67;;
50429;SDS011;36359;41.556;-8.418;2023-03-01T04:17:49;5.90;;;2.23;;
50429;SDS011;36359;41.556;-8.418;2023-03-01T04:20:17;4.03;;;1.70;;
50429;SDS011;36359;41.556;-8.418;2023-03-01T04:22:52;5.20;;;1.83;;
50429;SDS011;36359;41.556;-8.418;2023-03-01T04:25:35;5.17;;;1.67;;
50429;SDS011;36359;41.556;-8.418;2023-03-01T04:28:00;5.23;;;2.40;;
50429;SDS011;36359;41.556;-8.418;2023-03-01T04:30:26;7.93;;;3.57;;
50429;SDS011;36359;41.556;-8.418;2023-03-01T04:32:52;5.40;;;2.70;;
50429;SDS011;36359;41.556;-8.418;2023-03-01T04:35:17;5.13;;;2.70;;
50429;SDS011;36359;41.556;-8.418;2023-03-01T04:37:43;7.60;;;3.30;;
50429;SDS011;36359;41.556;-8.418;2023-03-01T04:40:10;4.97;;;2.73;;
50429;SDS011;36359;41.556;-8.418;2023-03-01T04:42:40;5.43;;;2.28;;
50429;SDS011;36359;41.556;-8.418;2023-03-01T04:45:07;6.00;;;2.17;;
50429;SDS011;36359;41.556;-8.418;2023-03-01T04:47:39;4.05;;;1.90;;
50429;SDS011;36359;41.556;-8.418;2023-03-01T04:50:06;4.83;;;1.90;;
50429;SDS011;36359;41.556;-8.418;2023-03-01T04:52:33;3.33;;;1.33;;
50429;SDS011;36359;41.556;-8.418;2023-03-01T04:54:59;4.73;;;0.90;;
50429;SDS011;36359;41.556;-8.418;2023-03-01T04:57:25;3.67;;;1.30;;
50429;SDS011;36359;41.556;-8.418;2023-03-01T04:59:50;4.10;;;1.20;;
50429;SDS011;36359;41.556;-8.418;2023-03-01T05:02:16;2.30;;;1.17;;
50429;SDS011;36359;41.556;-8.418;2023-03-01T05:04:42;2.23;;;0.90;;
50429;SDS011;36359;41.556;-8.418;2023-03-01T05:07:07;4.20;;;1.20;;
50429;SDS011;36359;41.556;-8.418;2023-03-01T05:09:33;4.47;;;1.27;;
50429;SDS011;36359;41.556;-8.418;2023-03-01T05:11:59;4.40;;;1.20;;
50429;SDS011;36359;41.556;-8.418;2023-03-01T05:14:24;3.23;;;0.97;;
50429;SDS011;36359;41.556;-8.418;2023-03-01T05:16:50;4.73;;;0.90;;
50429;SDS011;36359;41.556;-8.418;2023-03-01T05:19:16;6.20;;;1.47;;
50429;SDS011;36359;41.556;-8.418;2023-03-01T05:21:48;2.70;;;0.80;;
50429;SDS011;36359;41.556;-8.418;2023-03-01T05:24:30;1.93;;;0.77;;
50429;SDS011;36359;41.556;-8.418;2023-03-01T05:26:56;4.23;;;1.00;;
50429;SDS011;36359;41.556;-8.418;2023-03-01T05:29:23;3.40;;;1.03;;
50429;SDS011;36359;41.556;-8.418;2023-03-01T05:31:51;2.70;;;1.10;;
50429;SDS011;36359;41.556;-8.418;2023-03-01T05:34:18;5.40;;;1.50;;
50429;SDS011;36359;41.556;-8.418;2023-03-01T05:36:48;3.10;;;1.03;;
50429;SDS011;36359;41.556;-8.418;2023-03-01T05:39:13;2.87;;;1.00;;
50429;SDS011;36359;41.556;-8.418;2023-03-01T05:41:39;2.90;;;1.07;;
50429;SDS011;36359;41.556;-8.418;2023-03-01T05:44:06;4.63;;;1.40;;
50429;SDS011;36359;41.556;-8.418;2023-03-01T05:46:32;5.27;;;1.23;;
50429;SDS011;36359;41.556;-8.418;2023-03-01T05:48:58;3.97;;;1.50;;
50429;SDS011;36359;41.556;-8.418;2023-03-01T05:51:23;4.97;;;1.10;;
50429;SDS011;36359;41.556;-8.418;2023-03-01T05:53:49;4.80;;;1.67;;
50429;SDS011;36359;41.556;-8.418;2023-03-01T05:56:15;2.83;;;1.17;;
50429;SDS011;36359;41.556;-8.418;2023-03-01T05:58:40;4.80;;;1.57;;
50429;SDS011;36359;41.556;-8.418;2023-03-01T06:01:10;6.30;;;1.80;;
50429;SDS011;36359;41.556;-8.418;2023-03-01T06:03:37;4.43;;;1.52;;
50429;SDS011;36359;41.556;-8.418;2023-03-01T06:06:02;5.03;;;1.87;;
50429;SDS011;36359;41.556;-8.418;2023-03-01T06:08:28;3.87;;;1.47;;
50429;SDS011;36359;41.556;-8.418;2023-03-01T06:10:54;4.33;;;1.40;;
50429;SDS011;36359;41.556;-8.418;2023-03-01T06:13:19;4.57;;;1.30;;
50429;SDS011;36359;41.556;-8.418;2023-03-01T06:15:45;4.17;;;1.63;;
50429;SDS011;36359;41.556;-8.418;2023-03-01T06:18:11;2.60;;;1.10;;
50429;SDS011;36359;41.556;-8.418;2023-03-01T06:20:36;3.87;;;1.40;;
50429;SDS011;36359;41.556;-8.418;2023-03-01T06:23:02;3.00;;;1.10;;
50429;SDS011;36359;41.556;-8.418;2023-03-01T06:25:28;3.90;;;1.33;;
50429;SDS011;36359;41.556;-8.418;2023-03-01T06:27:54;5.87;;;1.13;;
50429;SDS011;36359;41.556;-8.418;2023-03-01T06:30:21;4.63;;;1.20;;
50429;SDS011;36359;41.556;-8.418;2023-03-01T06:32:49;4.20;;;0.93;;
50429;SDS011;36359;41.556;-8.418;2023-03-01T06:35:15;3.53;;;1.10;;
50429;SDS011;36359;41.556;-8.418;2023-03-01T06:37:46;6.60;;;1.55;;
50429;SDS011;36359;41.556;-8.418;2023-03-01T06:40:12;5.00;;;1.10;;
50429;SDS011;36359;41.556;-8.418;2023-03-01T06:42:39;5.13;;;1.53;;
50429;SDS011;36359;41.556;-8.418;2023-03-01T06:45:07;3.27;;;1.30;;
50429;SDS011;36359;41.556;-8.418;2023-03-01T06:47:34;4.77;;;1.93;;
50429;SDS011;36359;41.556;-8.418;2023-03-01T06:50:00;4.13;;;1.40;;
50429;SDS011;36359;41.556;-8.418;2023-03-01T06:52:26;5.57;;;1.80;;
50429;SDS011;36359;41.556;-8.418;2023-03-01T06:54:52;3.50;;;1.37;;
50429;SDS011;36359;41.556;-8.418;2023-03-01T06:57:17;6.30;;;1.47;;
50429;SDS011;36359;41.556;-8.418;2023-03-01T06:59:43;3.60;;;1.40;;
50429;SDS011;36359;41.556;-8.418;2023-03-01T07:02:12;6.07;;;1.80;;
50429;SDS011;36359;41.556;-8.418;2023-03-01T07:04:38;6.57;;;1.47;;
50429;SDS011;36359;41.556;-8.418;2023-03-01T07:07:04;3.23;;;1.43;;
50429;SDS011;36359;41.556;-8.418;2023-03-01T07:09:30;4.70;;;1.57;;
50429;SDS011;36359;41.556;-8.418;2023-03-01T07:11:56;3.77;;;1.37;;
50429;SDS011;36359;41.556;-8.418;2023-03-01T07:14:22;7.47;;;1.77;;
50429;SDS011;36359;41.556;-8.418;2023-03-01T07:16:52;12.50;;;3.10;;
50429;SDS011;36359;41.556;-8.418;2023-03-01T07:19:18;7.10;;;3.40;;
50429;SDS011;36359;41.556;-8.418;2023-03-01T07:21:44;6.30;;;3.77;;
50429;SDS011;36359;41.556;-8.418;2023-03-01T07:24:10;8.33;;;3.93;;
50429;SDS011;36359;41.556;-8.418;2023-03-01T07:26:36;10.87;;;4.27;;
50429;SDS011;36359;41.556;-8.418;2023-03-01T07:29:02;7.67;;;4.00;;
50429;SDS011;36359;41.556;-8.418;2023-03-01T07:31:29;11.10;;;4.97;;
50429;SDS011;36359;41.556;-8.418;2023-03-01T07:33:58;9.60;;;4.80;;
50429;SDS011;36359;41.556;-8.418;2023-03-01T07:36:24;7.17;;;4.30;;
50429;SDS011;36359;41.556;-8.418;2023-03-01T07:38:50;9.27;;;5.00;;
50429;SDS011;36359;41.556;-8.418;2023-03-01T07:41:16;12.33;;;4.77;;
50429;SDS011;36359;41.556;-8.418;2023-03-01T07:43:41;10.13;;;5.30;;
50429;SDS011;36359;41.556;-8.418;2023-03-01T07:46:09;6.50;;;4.07;;
50429;SDS011;36359;41.556;-8.418;2023-03-01T07:48:35;9.73;;;3.37;;
50429;SDS011;36359;41.556;-8.418;2023-03-01T07:51:01;7.73;;;3.60;;
50429;SDS011;36359;41.556;-8.418;2023-03-01T07:53:28;8.27;;;3.50;;
50429;SDS011;36359;41.556;-8.418;2023-03-01T07:56:06;6.87;;;3.07;;
50429;SDS011;36359;41.556;-8.418;2023-03-01T07:58:35;6.53;;;3.40;;
50429;SDS011;36359;41.556;-8.418;2023-03-01T08:01:05;9.83;;;4.37;;
50429;SDS011;36359;41.556;-8.418;2023-03-01T08:03:34;8.90;;;4.23;;
50429;SDS011;36359;41.556;-8.418;2023-03-01T08:06:03;7.13;;;3.30;;
50429;SDS011;36359;41.556;-8.418;2023-03-01T08:08:31;13.20;;;4.07;;
50429;SDS011;36359;41.556;-8.418;2023-03-01T08:10:58;4.63;;;3.13;;
50429;SDS011;36359;41.556;-8.418;2023-03-01T08:16:12;9.50;;;2.70;;
50429;SDS011;36359;41.556;-8.418;2023-03-01T08:18:41;16.33;;;3.57;;
50429;SDS011;36359;41.556;-8.418;2023-03-01T08:21:09;12.13;;;3.37;;
50429;SDS011;36359;41.556;-8.418;2023-03-01T08:23:37;9.70;;;3.43;;
50429;SDS011;36359;41.556;-8.418;2023-03-01T08:26:09;18.80;;;5.03;;
50429;SDS011;36359;41.556;-8.418;2023-03-01T08:28:40;9.10;;;3.70;;
50429;SDS011;36359;41.556;-8.418;2023-03-01T08:31:13;21.40;;;3.13;;
50429;SDS011;36359;41.556;-8.418;2023-03-01T08:33:39;6.53;;;3.03;;
50429;SDS011;36359;41.556;-8.418;2023-03-01T08:36:05;9.17;;;3.07;;
50429;SDS011;36359;41.556;-8.418;2023-03-01T08:38:32;12.20;;;3.07;;
50429;SDS011;36359;41.556;-8.418;2023-03-01T08:40:59;12.80;;;5.43;;
50429;SDS011;36359;41.556;-8.418;2023-03-01T08:43:26;11.13;;;5.23;;
50429;SDS011;36359;41.556;-8.418;2023-03-01T08:45:52;12.13;;;5.83;;
50429;SDS011;36359;41.556;-8.418;2023-03-01T08:48:18;12.77;;;5.60;;
50429;SDS011;36359;41.556;-8.418;2023-03-01T08:50:44;10.33;;;4.37;;
50429;SDS011;36359;41.556;-8.418;2023-03-01T08:53:09;6.33;;;3.50;;
50429;SDS011;36359;41.556;-8.418;2023-03-01T08:55:35;13.67;;;4.23;;
50429;SDS011;36359;41.556;-8.418;2023-03-01T08:58:01;9.63;;;3.83;;
50429;SDS011;36359;41.556;-8.418;2023-03-01T09:00:27;9.97;;;3.53;;
50429;SDS011;36359;41.556;-8.418;2023-03-01T09:02:53;6.00;;;3.17;;
50429;SDS011;36359;41.556;-8.418;2023-03-01T09:05:18;6.63;;;2.60;;
50429;SDS011;36359;41.556;-8.418;2023-03-01T09:07:44;5.13;;;3.03;;
50429;SDS011;36359;41.556;-8.418;2023-03-01T09:10:10;12.57;;;4.00;;
50429;SDS011;36359;41.556;-8.418;2023-03-01T09:12:36;11.90;;;4.13;;
50429;SDS011;36359;41.556;-8.418;2023-03-01T09:15:02;18.37;;;8.60;;
50429;SDS011;36359;41.556;-8.418;2023-03-01T09:17:28;21.17;;;8.73;;
50429;SDS011;36359;41.556;-8.418;2023-03-01T09:19:54;18.77;;;7.57;;
50429;SDS011;36359;41.556;-8.418;2023-03-01T09:22:20;9.90;;;4.13;;
50429;SDS011;36359;41.556;-8.418;2023-03-01T09:24:48;13.87;;;4.23;;
50429;SDS011;36359;41.556;-8.418;2023-03-01T09:27:13;15.70;;;6.40;;
50429;SDS011;36359;41.556;-8.418;2023-03-01T09:29:39;13.00;;;3.87;;
50429;SDS011;36359;41.556;-8.418;2023-03-01T09:32:05;13.73;;;5.10;;
50429;SDS011;36359;41.556;-8.418;2023-03-01T09:34:33;10.20;;;3.20;;
50429;SDS011;36359;41.556;-8.418;2023-03-01T09:37:19;13.80;;;3.47;;
50429;SDS011;36359;41.556;-8.418;2023-03-01T09:39:44;6.47;;;2.83;;
50429;SDS011;36359;41.556;-8.418;2023-03-01T09:42:10;7.57;;;3.00;;
50429;SDS011;36359;41.556;-8.418;2023-03-01T09:47:45;5.83;;;2.20;;
50429;SDS011;36359;41.556;-8.418;2023-03-01T09:50:15;8.10;;;2.27;;
50429;SDS011;36359;41.556;-8.418;2023-03-01T09:52:47;5.97;;;2.13;;
50429;SDS011;36359;41.556;-8.418;2023-03-01T09:55:26;10.83;;;2.43;;
50429;SDS011;36359;41.556;-8.418;2023-03-01T09:57:59;10.60;;;2.77;;
50429;SDS011;36359;41.556;-8.418;2023-03-01T10:00:44;6.13;;;2.87;;
50429;SDS011;36359;41.556;-8.418;2023-03-01T10:03:33;8.30;;;2.30;;
50429;SDS011;36359;41.556;-8.418;2023-03-01T10:06:06;12.00;;;2.63;;
50429;SDS011;36359;41.556;-8.418;2023-03-01T10:08:50;12.53;;;4.33;;
50429;SDS011;36359;41.556;-8.418;2023-03-01T10:11:30;11.43;;;4.37;;
50429;SDS011;36359;41.556;-8.418;2023-03-01T10:14:05;15.93;;;4.83;;
50429;SDS011;36359;41.556;-8.418;2023-03-01T10:17:00;6.03;;;2.00;;
50429;SDS011;36359;41.556;-8.418;2023-03-01T10:19:31;10.97;;;2.77;;
50429;SDS011;36359;41.556;-8.418;2023-03-01T10:22:21;11.03;;;3.73;;
50429;SDS011;36359;41.556;-8.418;2023-03-01T10:24:56;11.50;;;3.67;;
50429;SDS011;36359;41.556;-8.418;2023-03-01T10:27:46;10.75;;;4.03;;
50429;SDS011;36359;41.556;-8.418;2023-03-01T10:32:53;15.57;;;5.87;;
50429;SDS011;36359;41.556;-8.418;2023-03-01T10:35:20;6.60;;;3.73;;
50429;SDS011;36359;41.556;-8.418;2023-03-01T10:40:23;8.07;;;2.83;;
50429;SDS011;36359;41.556;-8.418;2023-03-01T10:42:49;11.13;;;4.30;;
50429;SDS011;36359;41.556;-8.418;2023-03-01T10:48:14;6.33;;;2.70;;
50429;SDS011;36359;41.556;-8.418;2023-03-01T10:50:44;8.00;;;3.60;;
50429;SDS011;36359;41.556;-8.418;2023-03-01T10:53:25;6.80;;;2.90;;
50429;SDS011;36359;41.556;-8.418;2023-03-01T10:56:01;9.40;;;3.87;;
50429;SDS011;36359;41.556;-8.418;2023-03-01T10:58:30;7.63;;;4.00;;
50429;SDS011;36359;41.556;-8.418;2023-03-01T11:00:58;7.87;;;3.73;;
50429;SDS011;36359;41.556;-8.418;2023-03-01T11:03:28;9.40;;;3.80;;
50429;SDS011;36359;41.556;-8.418;2023-03-01T11:08:42;10.67;;;3.63;;
50429;SDS011;36359;41.556;-8.418;2023-03-01T11:14:05;11.00;;;3.92;;
50429;SDS011;36359;41.556;-8.418;2023-03-01T11:16:43;4.67;;;2.07;;
50429;SDS011;36359;41.556;-8.418;2023-03-01T11:24:18;9.77;;;3.53;;
50429;SDS011;36359;41.556;-8.418;2023-03-01T11:26:47;8.30;;;3.57;;
50429;SDS011;36359;41.556;-8.418;2023-03-01T11:29:33;9.67;;;4.37;;
50429;SDS011;36359;41.556;-8.418;2023-03-01T11:32:07;8.87;;;3.67;;
50429;SDS011;36359;41.556;-8.418;2023-03-01T11:40:05;11.13;;;4.00;;
50429;SDS011;36359;41.556;-8.418;2023-03-01T11:46:19;6.80;;;3.10;;
50429;SDS011;36359;41.556;-8.418;2023-03-01T11:50:55;6.60;;;3.23;;
50429;SDS011;36359;41.556;-8.418;2023-03-01T11:53:29;7.07;;;3.50;;
50429;SDS011;36359;41.556;-8.418;2023-03-01T12:01:31;5.70;;;2.53;;
50429;SDS011;36359;41.556;-8.418;2023-03-01T12:04:31;5.45;;;2.10;;
50429;SDS011;36359;41.556;-8.418;2023-03-01T12:07:15;3.80;;;2.10;;
50429;SDS011;36359;41.556;-8.418;2023-03-01T12:09:48;4.43;;;1.97;;
50429;SDS011;36359;41.556;-8.418;2023-03-01T12:12:32;4.73;;;2.20;;
50429;SDS011;36359;41.556;-8.418;2023-03-01T12:29:29;6.28;;;2.40;;
50429;SDS011;36359;41.556;-8.418;2023-03-01T12:32:08;4.17;;;1.97;;
50429;SDS011;36359;41.556;-8.418;2023-03-01T12:37:36;3.30;;;1.70;;
50429;SDS011;36359;41.556;-8.418;2023-03-01T12:43:17;3.47;;;1.48;;
50429;SDS011;36359;41.556;-8.418;2023-03-01T12:46:06;3.70;;;1.75;;
50429;SDS011;36359;41.556;-8.418;2023-03-01T12:48:47;5.20;;;1.30;;
50429;SDS011;36359;41.556;-8.418;2023-03-01T12:51:28;6.10;;;1.77;;
50429;SDS011;36359;41.556;-8.418;2023-03-01T12:53:57;2.05;;;1.20;;
50429;SDS011;36359;41.556;-8.418;2023-03-01T12:56:31;4.33;;;1.93;;
50429;SDS011;36359;41.556;-8.418;2023-03-01T13:07:41;7.87;;;2.50;;
50429;SDS011;36359;41.556;-8.418;2023-03-01T13:17:48;5.20;;;2.00;;
50429;SDS011;36359;41.556;-8.418;2023-03-01T13:31:02;2.85;;;1.10;;
50429;SDS011;36359;41.556;-8.418;2023-03-01T13:36:01;4.10;;;1.40;;
50429;SDS011;36359;41.556;-8.418;2023-03-01T13:41:14;3.03;;;1.40;;
50429;SDS011;36359;41.556;-8.418;2023-03-01T13:43:43;2.80;;;1.60;;
50429;SDS011;36359;41.556;-8.418;2023-03-01T13:46:21;4.90;;;1.47;;
50429;SDS011;36359;41.556;-8.418;2023-03-01T13:48:50;2.70;;;1.50;;
50429;SDS011;36359;41.556;-8.418;2023-03-01T13:51:25;4.10;;;1.40;;
50429;SDS011;36359;41.556;-8.418;2023-03-01T13:53:53;4.18;;;1.52;;
50429;SDS011;36359;41.556;-8.418;2023-03-01T13:59:01;4.68;;;1.75;;
50429;SDS011;36359;41.556;-8.418;2023-03-01T14:01:31;5.67;;;3.03;;
50429;SDS011;36359;41.556;-8.418;2023-03-01T14:03:59;5.53;;;2.20;;
50429;SDS011;36359;41.556;-8.418;2023-03-01T14:06:26;3.23;;;1.63;;
50429;SDS011;36359;41.556;-8.418;2023-03-01T14:09:01;5.87;;;2.17;;
50429;SDS011;36359;41.556;-8.418;2023-03-01T14:19:14;4.25;;;2.10;;
50429;SDS011;36359;41.556;-8.418;2023-03-01T14:21:44;4.20;;;1.63;;
50429;SDS011;36359;41.556;-8.418;2023-03-01T14:24:22;4.65;;;2.50;;
50429;SDS011;36359;41.556;-8.418;2023-03-01T14:26:49;3.47;;;2.00;;
50429;SDS011;36359;41.556;-8.418;2023-03-01T14:29:33;5.20;;;1.70;;
50429;SDS011;36359;41.556;-8.418;2023-03-01T14:32:11;3.30;;;1.73;;
50429;SDS011;36359;41.556;-8.418;2023-03-01T14:34:48;2.92;;;1.58;;
50429;SDS011;36359;41.556;-8.418;2023-03-01T14:39:41;8.18;;;2.28;;
50429;SDS011;36359;41.556;-8.418;2023-03-01T14:42:07;3.17;;;1.58;;
50429;SDS011;36359;41.556;-8.418;2023-03-01T14:44:32;3.03;;;1.35;;
50429;SDS011;36359;41.556;-8.418;2023-03-01T14:47:02;26.25;;;5.55;;
50429;SDS011;36359;41.556;-8.418;2023-03-01T14:49:30;4.65;;;1.90;;
50429;SDS011;36359;41.556;-8.418;2023-03-01T14:51:59;6.20;;;1.40;;
50429;SDS011;36359;41.556;-8.418;2023-03-01T14:57:23;6.35;;;1.55;;
50429;SDS011;36359;41.556;-8.418;2023-03-01T14:59:54;3.83;;;1.55;;
50429;SDS011;36359;41.556;-8.418;2023-03-01T15:02:22;5.10;;;1.88;;
50429;SDS011;36359;41.556;-8.418;2023-03-01T15:05:01;4.65;;;1.60;;
50429;SDS011;36359;41.556;-8.418;2023-03-01T15:07:34;4.53;;;1.60;;
50429;SDS011;36359;41.556;-8.418;2023-03-01T15:10:04;7.80;;;2.53;;
50429;SDS011;36359;41.556;-8.418;2023-03-01T15:15:01;7.03;;;2.05;;
50429;SDS011;36359;41.556;-8.418;2023-03-01T15:17:44;4.50;;;1.50;;
50429;SDS011;36359;41.556;-8.418;2023-03-01T15:20:17;4.07;;;1.10;;
50429;SDS011;36359;41.556;-8.418;2023-03-01T15:22:46;2.00;;;0.70;;
50429;SDS011;36359;41.556;-8.418;2023-03-01T15:25:16;2.30;;;1.00;;
50429;SDS011;36359;41.556;-8.418;2023-03-01T15:27:48;3.57;;;0.77;;
50429;SDS011;36359;41.556;-8.418;2023-03-01T15:32:45;1.77;;;0.87;;
50429;SDS011;36359;41.556;-8.418;2023-03-01T15:37:59;5.07;;;1.40;;
50429;SDS011;36359;41.556;-8.418;2023-03-01T15:40:26;4.37;;;0.90;;
50429;SDS011;36359;41.556;-8.418;2023-03-01T15:43:00;5.80;;;2.10;;
50429;SDS011;36359;41.556;-8.418;2023-03-01T15:45:28;6.00;;;2.23;;
50429;SDS011;36359;41.556;-8.418;2023-03-01T15:47:58;3.47;;;1.73;;
50429;SDS011;36359;41.556;-8.418;2023-03-01T15:50:31;5.13;;;1.57;;
50429;SDS011;36359;41.556;-8.418;2023-03-01T15:52:59;5.97;;;1.90;;
50429;SDS011;36359;41.556;-8.418;2023-03-01T15:55:27;6.13;;;2.10;;
50429;SDS011;36359;41.556;-8.418;2023-03-01T16:00:44;5.07;;;1.73;;
50429;SDS011;36359;41.556;-8.418;2023-03-01T16:03:13;4.80;;;1.80;;
50429;SDS011;36359;41.556;-8.418;2023-03-01T16:05:46;4.50;;;1.50;;
50429;SDS011;36359;41.556;-8.418;2023-03-01T16:08:13;3.83;;;1.27;;
50429;SDS011;36359;41.556;-8.418;2023-03-01T16:10:40;2.53;;;0.93;;
50429;SDS011;36359;41.556;-8.418;2023-03-01T16:13:09;3.80;;;1.20;;
50429;SDS011;36359;41.556;-8.418;2023-03-01T16:15:36;5.47;;;1.27;;
50429;SDS011;36359;41.556;-8.418;2023-03-01T16:18:03;6.40;;;2.20;;
50429;SDS011;36359;41.556;-8.418;2023-03-01T16:20:30;3.03;;;1.30;;
50429;SDS011;36359;41.556;-8.418;2023-03-01T16:23:04;4.87;;;1.53;;
50429;SDS011;36359;41.556;-8.418;2023-03-01T16:25:32;6.00;;;1.67;;
50429;SDS011;36359;41.556;-8.418;2023-03-01T16:27:59;4.77;;;1.50;;
50429;SDS011;36359;41.556;-8.418;2023-03-01T16:30:29;4.77;;;1.47;;
50429;SDS011;36359;41.556;-8.418;2023-03-01T16:32:54;2.80;;;1.53;;
50429;SDS011;36359;41.556;-8.418;2023-03-01T16:35:20;4.90;;;1.93;;
50429;SDS011;36359;41.556;-8.418;2023-03-01T16:37:47;5.80;;;2.80;;
50429;SDS011;36359;41.556;-8.418;2023-03-01T16:40:21;4.53;;;1.50;;
50429;SDS011;36359;41.556;-8.418;2023-03-01T16:42:52;3.20;;;1.40;;
50429;SDS011;36359;41.556;-8.418;2023-03-01T16:45:19;4.20;;;1.27;;
50429;SDS011;36359;41.556;-8.418;2023-03-01T16:47:44;2.57;;;1.00;;
50429;SDS011;36359;41.556;-8.418;2023-03-01T16:50:10;2.53;;;1.00;;
50429;SDS011;36359;41.556;-8.418;2023-03-01T16:52:36;5.73;;;1.77;;
50429;SDS011;36359;41.556;-8.418;2023-03-01T16:55:03;3.97;;;1.20;;
50429;SDS011;36359;41.556;-8.418;2023-03-01T16:57:30;3.90;;;1.37;;
50429;SDS011;36359;41.556;-8.418;2023-03-01T16:59:56;6.70;;;1.63;;
50429;SDS011;36359;41.556;-8.418;2023-03-01T17:02:21;4.47;;;1.80;;
50429;SDS011;36359;41.556;-8.418;2023-03-01T17:04:54;2.60;;;1.10;;
50429;SDS011;36359;41.556;-8.418;2023-03-01T17:07:20;2.33;;;0.83;;